Agia Marina — SX5375 — position and weather

sailwx.info

Track history (hours):
 
Tides and Currents Weather Stations Pressure Air Temp Water Temp Dewpoint Dewpoint Depression Visibility Wind Speed Wind Dir Waves Ship Positions

Agia Marina

Last reported at 2017-Aug-19 07:29 UTC. Time now 2017-Aug-19 07:39 UTC.
Position N 38°02' E 023°36'.

Length 59 m; draft 2.5 m.

Type: Cargo ship. MMSI: 237042500.

Date/timePositionNaut miles runAvg speedWind from/ knotsBaromVisibWave heightAir tempDewpointWater temp
2017-Aug-19 07:29N 38°02' E 023°36'0 0.0
2017-Aug-19 06:59N 38°02' E 023°36'0 0.0
2017-Aug-19 06:29N 38°02' E 023°36'0 0.0
2017-Aug-19 05:59N 38°02' E 023°36'0 0.0
2017-Aug-19 05:29N 38°02' E 023°36'0 0.0
2017-Aug-19 04:59N 38°02' E 023°36'0 0.0
2017-Aug-19 04:29N 38°02' E 023°36'0 0.0
2017-Aug-19 03:59N 38°02' E 023°36'0 0.0
2017-Aug-19 03:29N 38°02' E 023°36'0 0.0
2017-Aug-19 02:59N 38°02' E 023°36'0 0.0
2017-Aug-19 02:29N 38°02' E 023°36'0 0.0
2017-Aug-19 01:59N 38°02' E 023°36'0 0.0
2017-Aug-19 01:29N 38°02' E 023°36'0 0.0
2017-Aug-19 00:59N 38°02' E 023°36'0 0.0
2017-Aug-19 00:29N 38°02' E 023°36'0 0.0
2017-Aug-18 23:59N 38°02' E 023°36'0 0.0
2017-Aug-18 23:29N 38°02' E 023°36'0 0.0
2017-Aug-18 22:59N 38°02' E 023°36'0 0.0
2017-Aug-18 22:29N 38°02' E 023°36'0 0.0
2017-Aug-18 21:59N 38°02' E 023°36'0 0.0
2017-Aug-18 21:29N 38°02' E 023°36'0 0.0
2017-Aug-18 20:59N 38°02' E 023°36'0 0.0
2017-Aug-18 20:29N 38°02' E 023°36'0 0.0
2017-Aug-18 19:59N 38°02' E 023°36'0 0.0
2017-Aug-18 19:29N 38°02' E 023°36'0 0.0
2017-Aug-18 18:59N 38°02' E 023°36'0 0.0
2017-Aug-18 18:29N 38°02' E 023°36'0 0.0
2017-Aug-18 17:59N 38°02' E 023°36'0 0.0
2017-Aug-18 17:29N 38°02' E 023°36'0 0.0
2017-Aug-18 16:59N 38°02' E 023°36'0 0.0
2017-Aug-18 16:29N 38°02' E 023°36'0 0.0
2017-Aug-18 15:59N 38°02' E 023°36'0 0.0
2017-Aug-18 15:29N 38°02' E 023°36'0 0.0
2017-Aug-18 14:59N 38°02' E 023°36'0 0.0
2017-Aug-18 14:29N 38°02' E 023°36'0 0.0
2017-Aug-18 13:29N 38°02' E 023°36'0 0.0
2017-Aug-18 12:59N 38°02' E 023°36'0 0.0
2017-Aug-18 12:29N 38°02' E 023°36'1 1.6
2017-Aug-18 12:00N 38°02' E 023°35'4 7.4
2017-Aug-18 11:30N 38°01' E 023°30'4 7.2
2017-Aug-18 11:00N 37°60' E 023°26'3 5.3
2017-Aug-18 10:30N 37°57' E 023°24'4 7.1
2017-Aug-18 10:00N 37°54' E 023°23'4 7.2
2017-Aug-18 09:30N 37°50' E 023°23'4 7.3
2017-Aug-18 09:00N 37°47' E 023°24'2 2.0
2017-Aug-18 07:54N 37°45' E 023°26'0 0.0
2017-Aug-18 07:24N 37°45' E 023°26'0 0.0
2017-Aug-18 05:06N 37°45' E 023°26'0 0.0
2017-Aug-18 04:48N 37°45' E 023°26'0 0.0
2017-Aug-18 04:30N 37°45' E 023°26'0 0.0
2017-Aug-18 03:48N 37°45' E 023°26'0 0.0
2017-Aug-18 03:27N 37°45' E 023°26'0 0.0
2017-Aug-18 02:57N 37°45' E 023°26'3 6.6
2017-Aug-18 02:30N 37°48' E 023°24'4 8.3
2017-Aug-18 02:01N 37°52' E 023°23'4 8.2
2017-Aug-18 01:30N 37°56' E 023°24'3 6.2
2017-Aug-18 01:00N 37°59' E 023°25'4 7.4
2017-Aug-18 00:30N 38°01' E 023°29'4 7.9
2017-Aug-18 00:00N 38°01' E 023°34'2 3.1
2017-Aug-17 23:29N 38°02' E 023°36'0 0.0
2017-Aug-17 22:59N 38°02' E 023°36'0 0.0
2017-Aug-17 22:29N 38°02' E 023°36'0 0.0
2017-Aug-17 21:59N 38°02' E 023°36'0 0.0
2017-Aug-17 21:29N 38°02' E 023°36'0 0.0
2017-Aug-17 20:59N 38°02' E 023°36'0 0.0
2017-Aug-17 20:29N 38°02' E 023°36'0 0.0
2017-Aug-17 19:59N 38°02' E 023°36'0 0.0
2017-Aug-17 19:29N 38°02' E 023°36'0 0.0
2017-Aug-17 18:59N 38°02' E 023°36'0 0.0
2017-Aug-17 18:29N 38°02' E 023°36'0 0.0
2017-Aug-17 17:59N 38°02' E 023°36'0 0.0
2017-Aug-17 17:29N 38°02' E 023°36'0 0.0
2017-Aug-17 16:59N 38°02' E 023°36'0 0.0
2017-Aug-17 16:29N 38°02' E 023°36'0 0.0
2017-Aug-17 15:59N 38°02' E 023°36'0 0.0
2017-Aug-17 15:29N 38°02' E 023°36'0 0.0
2017-Aug-17 14:59N 38°02' E 023°36'0 0.0
2017-Aug-17 14:29N 38°02' E 023°36'0 0.0
2017-Aug-17 13:59N 38°02' E 023°36'0 0.0
2017-Aug-17 13:29N 38°02' E 023°36'0 0.0
2017-Aug-17 12:59N 38°02' E 023°36'0 0.0
2017-Aug-17 12:29N 38°02' E 023°36'0 0.0
2017-Aug-17 11:56N 38°02' E 023°36'0 0.0
2017-Aug-17 11:29N 38°02' E 023°36'0 0.0
2017-Aug-17 10:59N 38°02' E 023°36'0 0.0
2017-Aug-17 10:29N 38°02' E 023°36'0 0.0
2017-Aug-17 09:59N 38°02' E 023°36'0 0.0
2017-Aug-17 09:29N 38°02' E 023°36'0 0.0
2017-Aug-17 08:59N 38°02' E 023°36'0 0.0
2017-Aug-17 08:29N 38°02' E 023°36'0 0.0
2017-Aug-17 07:59N 38°02' E 023°36'0 0.0
2017-Aug-17 07:29N 38°02' E 023°36'0 0.0
2017-Aug-17 06:59N 38°02' E 023°36'0 0.0
2017-Aug-17 06:29N 38°02' E 023°36'0 0.0
2017-Aug-17 05:59N 38°02' E 023°36'0 0.0
2017-Aug-17 05:29N 38°02' E 023°36'0 0.0
2017-Aug-17 04:59N 38°02' E 023°36'0 0.0
2017-Aug-17 04:29N 38°02' E 023°36'0 0.0
2017-Aug-17 03:59N 38°02' E 023°36'0 0.0
2017-Aug-17 03:26N 38°02' E 023°36'0 0.0
2017-Aug-17 02:59N 38°02' E 023°36'0 0.0
2017-Aug-17 02:29N 38°02' E 023°36'0 0.0
2017-Aug-17 01:59N 38°02' E 023°36'0 0.0
2017-Aug-17 01:29N 38°02' E 023°36'0 0.0
2017-Aug-17 00:59N 38°02' E 023°36'0 0.0
2017-Aug-17 00:29N 38°02' E 023°36'0 0.0
2017-Aug-16 23:59N 38°02' E 023°36'0 0.0
2017-Aug-16 23:29N 38°02' E 023°36'0 0.0
2017-Aug-16 22:59N 38°02' E 023°36'0 0.0
2017-Aug-16 22:29N 38°02' E 023°36'0 0.0
2017-Aug-16 21:59N 38°02' E 023°36'0 0.0
2017-Aug-16 21:29N 38°02' E 023°36'0 0.0
2017-Aug-16 20:59N 38°02' E 023°36'0 0.0
2017-Aug-16 20:29N 38°02' E 023°36'0 0.0
2017-Aug-16 19:59N 38°02' E 023°36'0 0.0
2017-Aug-16 19:29N 38°02' E 023°36'0 0.0
2017-Aug-16 18:59N 38°02' E 023°36'0 0.0
2017-Aug-16 18:29N 38°02' E 023°36'0 0.0
2017-Aug-16 17:59N 38°02' E 023°36'0 0.0
2017-Aug-16 17:29N 38°02' E 023°36'0 0.0
2017-Aug-16 16:59N 38°02' E 023°36'0 0.0
2017-Aug-16 16:29N 38°02' E 023°36'0 0.0
2017-Aug-16 15:59N 38°02' E 023°36'0 0.0
2017-Aug-16 15:29N 38°02' E 023°36'0 0.0
2017-Aug-16 14:59N 38°02' E 023°36'0 0.0
2017-Aug-16 14:29N 38°02' E 023°36'0 0.0
2017-Aug-16 13:59N 38°02' E 023°36'0 0.0
2017-Aug-16 13:29N 38°02' E 023°36'0 0.0
2017-Aug-16 12:59N 38°02' E 023°36'0 0.0
2017-Aug-16 12:29N 38°02' E 023°36'0 0.0
2017-Aug-16 11:59N 38°02' E 023°36'0 0.0
2017-Aug-16 11:29N 38°02' E 023°36'0 0.0
2017-Aug-16 10:59N 38°02' E 023°36'0 0.0
2017-Aug-16 10:29N 38°02' E 023°36'0 0.0
2017-Aug-16 09:59N 38°02' E 023°36'0 0.0
2017-Aug-16 09:29N 38°02' E 023°36'0 0.0
2017-Aug-16 08:59N 38°02' E 023°36'0 0.0
2017-Aug-16 08:29N 38°02' E 023°36'0 0.0
2017-Aug-16 07:59N 38°02' E 023°36'0 0.0
2017-Aug-16 07:29N 38°02' E 023°36'0 0.0
2017-Aug-16 06:59N 38°02' E 023°36'0 0.0
2017-Aug-16 06:29N 38°02' E 023°36'0 0.0
2017-Aug-16 05:59N 38°02' E 023°36'0 0.0
2017-Aug-16 05:29N 38°02' E 023°36'0 0.0
2017-Aug-16 04:59N 38°02' E 023°36'0 0.0
2017-Aug-16 04:29N 38°02' E 023°36'0 0.0
2017-Aug-16 03:59N 38°02' E 023°36'0 0.0
2017-Aug-16 03:29N 38°02' E 023°36'0 0.0
2017-Aug-16 02:59N 38°02' E 023°36'0 0.0
2017-Aug-16 02:29N 38°02' E 023°36'0 0.0
2017-Aug-16 01:56N 38°02' E 023°36'0 0.0
2017-Aug-16 01:29N 38°02' E 023°36'0 0.0
2017-Aug-16 00:59N 38°02' E 023°36'0 0.0
2017-Aug-16 00:29N 38°02' E 023°36'0 0.0
2017-Aug-15 23:59N 38°02' E 023°36'0 0.0
2017-Aug-15 23:29N 38°02' E 023°36'0 0.0
2017-Aug-15 22:59N 38°02' E 023°36'0 0.0
2017-Aug-15 22:29N 38°02' E 023°36'0 0.0
2017-Aug-15 21:59N 38°02' E 023°36'0 0.0
2017-Aug-15 21:29N 38°02' E 023°36'0 0.0
2017-Aug-15 20:59N 38°02' E 023°36'0 0.0
2017-Aug-15 20:29N 38°02' E 023°36'0 0.0
2017-Aug-15 19:59N 38°02' E 023°36'0 0.0
2017-Aug-15 19:29N 38°02' E 023°36'0 0.0
2017-Aug-15 18:59N 38°02' E 023°36'0 0.0
2017-Aug-15 18:29N 38°02' E 023°36'0 0.0
2017-Aug-15 17:59N 38°02' E 023°36'0 0.0
2017-Aug-15 17:29N 38°02' E 023°36'0 0.0
2017-Aug-15 16:59N 38°02' E 023°36'0 0.0
2017-Aug-15 16:29N 38°02' E 023°36'0 0.0
2017-Aug-15 15:59N 38°02' E 023°36'0 0.0
2017-Aug-15 15:29N 38°02' E 023°36'0 0.0
2017-Aug-15 14:59N 38°02' E 023°36'0 0.0
2017-Aug-15 14:29N 38°02' E 023°36'0 0.0
2017-Aug-15 13:59N 38°02' E 023°36'0 0.0
2017-Aug-15 13:29N 38°02' E 023°36'0 0.0
2017-Aug-15 12:59N 38°02' E 023°36'0 0.0
2017-Aug-15 12:29N 38°02' E 023°36'0 0.0
2017-Aug-15 11:59N 38°02' E 023°36'0 0.0
2017-Aug-15 11:29N 38°02' E 023°36'0 0.0
2017-Aug-15 10:59N 38°02' E 023°36'0 0.0
2017-Aug-15 10:29N 38°02' E 023°36'0 0.0
2017-Aug-15 09:59N 38°02' E 023°36'0 0.0
2017-Aug-15 09:29N 38°02' E 023°36'0 0.0
2017-Aug-15 08:59N 38°02' E 023°36'0 0.0
2017-Aug-15 08:29N 38°02' E 023°36'0 0.0
2017-Aug-15 07:59N 38°02' E 023°36'0 0.0
2017-Aug-15 07:29N 38°02' E 023°36'0 0.0
2017-Aug-15 06:59N 38°02' E 023°36'0 0.0
2017-Aug-15 06:29N 38°02' E 023°36'0 0.0
2017-Aug-15 05:59N 38°02' E 023°36'0 0.0
2017-Aug-15 05:29N 38°02' E 023°36'0 0.0
2017-Aug-15 04:59N 38°02' E 023°36'0 0.0
2017-Aug-15 04:29N 38°02' E 023°36'0 0.0
2017-Aug-15 03:59N 38°02' E 023°36'0 0.0
2017-Aug-15 03:29N 38°02' E 023°36'0 0.0
2017-Aug-15 02:59N 38°02' E 023°36'0 0.0
2017-Aug-15 02:29N 38°02' E 023°36'0 0.0
2017-Aug-15 01:59N 38°02' E 023°36'0 0.0
2017-Aug-15 01:29N 38°02' E 023°36'0 0.0
2017-Aug-15 00:59N 38°02' E 023°36'0 0.0
2017-Aug-15 00:29N 38°02' E 023°36'0 0.0
2017-Aug-14 23:59N 38°02' E 023°36'0 0.0
2017-Aug-14 23:29N 38°02' E 023°36'0 0.0
2017-Aug-14 22:59N 38°02' E 023°36'0 0.0
2017-Aug-14 22:29N 38°02' E 023°36'0 0.0
2017-Aug-14 21:59N 38°02' E 023°36'0 0.0
2017-Aug-14 21:29N 38°02' E 023°36'0 0.0
2017-Aug-14 20:59N 38°02' E 023°36'0 0.0
2017-Aug-14 20:29N 38°02' E 023°36'0 0.0
2017-Aug-14 19:59N 38°02' E 023°36'0 0.0
2017-Aug-14 19:29N 38°02' E 023°36'0 0.0
2017-Aug-14 18:59N 38°02' E 023°36'0 0.0
2017-Aug-14 18:29N 38°02' E 023°36'0 0.2
2017-Aug-14 18:01N 38°02' E 023°35'4 7.5
2017-Aug-14 17:30N 37°59' E 023°33'3 6.5
2017-Aug-14 17:01N 37°56' E 023°35'4 8.0
2017-Aug-14 16:30N 37°52' E 023°37'4 8.3
2017-Aug-14 16:00N 37°49' E 023°40'4 8.1
2017-Aug-14 15:30N 37°45' E 023°42'4 7.9
2017-Aug-14 15:00N 37°42' E 023°44'4 7.6
2017-Aug-14 14:30N 37°39' E 023°47'4 7.8
2017-Aug-14 14:00N 37°36' E 023°50'  
Track history (hours):
 
Tides and Currents Weather Stations Pressure Air Temp Water Temp Dewpoint Dewpoint Depression Visibility Wind Speed Wind Dir Waves Ship Positions

Agia Marina

Last reported at 2017-Aug-19 07:29 UTC. Time now 2017-Aug-19 07:39 UTC.
Position N 38°02' E 023°36'.

Length 59 m; draft 2.5 m.

Type: Cargo ship. MMSI: 237042500.

Date/timePositionNaut miles runAvg speedWind from/ knotsBaromVisibWave heightAir tempDewpointWater temp
2017-Aug-19 07:29N 38°02' E 023°36'0 0.0
2017-Aug-19 06:59N 38°02' E 023°36'0 0.0
2017-Aug-19 06:29N 38°02' E 023°36'0 0.0
2017-Aug-19 05:59N 38°02' E 023°36'0 0.0
2017-Aug-19 05:29N 38°02' E 023°36'0 0.0
2017-Aug-19 04:59N 38°02' E 023°36'0 0.0
2017-Aug-19 04:29N 38°02' E 023°36'0 0.0
2017-Aug-19 03:59N 38°02' E 023°36'0 0.0
2017-Aug-19 03:29N 38°02' E 023°36'0 0.0
2017-Aug-19 02:59N 38°02' E 023°36'0 0.0
2017-Aug-19 02:29N 38°02' E 023°36'0 0.0
2017-Aug-19 01:59N 38°02' E 023°36'0 0.0
2017-Aug-19 01:29N 38°02' E 023°36'0 0.0
2017-Aug-19 00:59N 38°02' E 023°36'0 0.0
2017-Aug-19 00:29N 38°02' E 023°36'0 0.0
2017-Aug-18 23:59N 38°02' E 023°36'0 0.0
2017-Aug-18 23:29N 38°02' E 023°36'0 0.0
2017-Aug-18 22:59N 38°02' E 023°36'0 0.0
2017-Aug-18 22:29N 38°02' E 023°36'0 0.0
2017-Aug-18 21:59N 38°02' E 023°36'0 0.0
2017-Aug-18 21:29N 38°02' E 023°36'0 0.0
2017-Aug-18 20:59N 38°02' E 023°36'0 0.0
2017-Aug-18 20:29N 38°02' E 023°36'0 0.0
2017-Aug-18 19:59N 38°02' E 023°36'0 0.0
2017-Aug-18 19:29N 38°02' E 023°36'0 0.0
2017-Aug-18 18:59N 38°02' E 023°36'0 0.0
2017-Aug-18 18:29N 38°02' E 023°36'0 0.0
2017-Aug-18 17:59N 38°02' E 023°36'0 0.0
2017-Aug-18 17:29N 38°02' E 023°36'0 0.0
2017-Aug-18 16:59N 38°02' E 023°36'0 0.0
2017-Aug-18 16:29N 38°02' E 023°36'0 0.0
2017-Aug-18 15:59N 38°02' E 023°36'0 0.0
2017-Aug-18 15:29N 38°02' E 023°36'0 0.0
2017-Aug-18 14:59N 38°02' E 023°36'0 0.0
2017-Aug-18 14:29N 38°02' E 023°36'0 0.0
2017-Aug-18 13:29N 38°02' E 023°36'0 0.0
2017-Aug-18 12:59N 38°02' E 023°36'0 0.0
2017-Aug-18 12:29N 38°02' E 023°36'1 1.6
2017-Aug-18 12:00N 38°02' E 023°35'4 7.4
2017-Aug-18 11:30N 38°01' E 023°30'4 7.2
2017-Aug-18 11:00N 37°60' E 023°26'3 5.3
2017-Aug-18 10:30N 37°57' E 023°24'4 7.1
2017-Aug-18 10:00N 37°54' E 023°23'4 7.2
2017-Aug-18 09:30N 37°50' E 023°23'4 7.3
2017-Aug-18 09:00N 37°47' E 023°24'2 2.0
2017-Aug-18 07:54N 37°45' E 023°26'0 0.0
2017-Aug-18 07:24N 37°45' E 023°26'0 0.0
2017-Aug-18 05:06N 37°45' E 023°26'0 0.0
2017-Aug-18 04:48N 37°45' E 023°26'0 0.0
2017-Aug-18 04:30N 37°45' E 023°26'0 0.0
2017-Aug-18 03:48N 37°45' E 023°26'0 0.0
2017-Aug-18 03:27N 37°45' E 023°26'0 0.0
2017-Aug-18 02:57N 37°45' E 023°26'3 6.6
2017-Aug-18 02:30N 37°48' E 023°24'4 8.3
2017-Aug-18 02:01N 37°52' E 023°23'4 8.2
2017-Aug-18 01:30N 37°56' E 023°24'3 6.2
2017-Aug-18 01:00N 37°59' E 023°25'4 7.4
2017-Aug-18 00:30N 38°01' E 023°29'4 7.9
2017-Aug-18 00:00N 38°01' E 023°34'2 3.1
2017-Aug-17 23:29N 38°02' E 023°36'0 0.0
2017-Aug-17 22:59N 38°02' E 023°36'0 0.0
2017-Aug-17 22:29N 38°02' E 023°36'0 0.0
2017-Aug-17 21:59N 38°02' E 023°36'0 0.0
2017-Aug-17 21:29N 38°02' E 023°36'0 0.0
2017-Aug-17 20:59N 38°02' E 023°36'0 0.0
2017-Aug-17 20:29N 38°02' E 023°36'0 0.0
2017-Aug-17 19:59N 38°02' E 023°36'0 0.0
2017-Aug-17 19:29N 38°02' E 023°36'0 0.0
2017-Aug-17 18:59N 38°02' E 023°36'0 0.0
2017-Aug-17 18:29N 38°02' E 023°36'0 0.0
2017-Aug-17 17:59N 38°02' E 023°36'0 0.0
2017-Aug-17 17:29N 38°02' E 023°36'0 0.0
2017-Aug-17 16:59N 38°02' E 023°36'0 0.0
2017-Aug-17 16:29N 38°02' E 023°36'0 0.0
2017-Aug-17 15:59N 38°02' E 023°36'0 0.0
2017-Aug-17 15:29N 38°02' E 023°36'0 0.0
2017-Aug-17 14:59N 38°02' E 023°36'0 0.0
2017-Aug-17 14:29N 38°02' E 023°36'0 0.0
2017-Aug-17 13:59N 38°02' E 023°36'0 0.0
2017-Aug-17 13:29N 38°02' E 023°36'0 0.0
2017-Aug-17 12:59N 38°02' E 023°36'0 0.0
2017-Aug-17 12:29N 38°02' E 023°36'0 0.0
2017-Aug-17 11:56N 38°02' E 023°36'0 0.0
2017-Aug-17 11:29N 38°02' E 023°36'0 0.0
2017-Aug-17 10:59N 38°02' E 023°36'0 0.0
2017-Aug-17 10:29N 38°02' E 023°36'0 0.0
2017-Aug-17 09:59N 38°02' E 023°36'0 0.0
2017-Aug-17 09:29N 38°02' E 023°36'0 0.0
2017-Aug-17 08:59N 38°02' E 023°36'0 0.0
2017-Aug-17 08:29N 38°02' E 023°36'0 0.0
2017-Aug-17 07:59N 38°02' E 023°36'0 0.0
2017-Aug-17 07:29N 38°02' E 023°36'0 0.0
2017-Aug-17 06:59N 38°02' E 023°36'0 0.0
2017-Aug-17 06:29N 38°02' E 023°36'0 0.0
2017-Aug-17 05:59N 38°02' E 023°36'0 0.0
2017-Aug-17 05:29N 38°02' E 023°36'0 0.0
2017-Aug-17 04:59N 38°02' E 023°36'0 0.0
2017-Aug-17 04:29N 38°02' E 023°36'0 0.0
2017-Aug-17 03:59N 38°02' E 023°36'0 0.0
2017-Aug-17 03:26N 38°02' E 023°36'0 0.0
2017-Aug-17 02:59N 38°02' E 023°36'0 0.0
2017-Aug-17 02:29N 38°02' E 023°36'0 0.0
2017-Aug-17 01:59N 38°02' E 023°36'0 0.0
2017-Aug-17 01:29N 38°02' E 023°36'0 0.0
2017-Aug-17 00:59N 38°02' E 023°36'0 0.0
2017-Aug-17 00:29N 38°02' E 023°36'0 0.0
2017-Aug-16 23:59N 38°02' E 023°36'0 0.0
2017-Aug-16 23:29N 38°02' E 023°36'0 0.0
2017-Aug-16 22:59N 38°02' E 023°36'0 0.0
2017-Aug-16 22:29N 38°02' E 023°36'0 0.0
2017-Aug-16 21:59N 38°02' E 023°36'0 0.0
2017-Aug-16 21:29N 38°02' E 023°36'0 0.0
2017-Aug-16 20:59N 38°02' E 023°36'0 0.0
2017-Aug-16 20:29N 38°02' E 023°36'0 0.0
2017-Aug-16 19:59N 38°02' E 023°36'0 0.0
2017-Aug-16 19:29N 38°02' E 023°36'0 0.0
2017-Aug-16 18:59N 38°02' E 023°36'0 0.0
2017-Aug-16 18:29N 38°02' E 023°36'0 0.0
2017-Aug-16 17:59N 38°02' E 023°36'0 0.0
2017-Aug-16 17:29N 38°02' E 023°36'0 0.0
2017-Aug-16 16:59N 38°02' E 023°36'0 0.0
2017-Aug-16 16:29N 38°02' E 023°36'0 0.0
2017-Aug-16 15:59N 38°02' E 023°36'0 0.0
2017-Aug-16 15:29N 38°02' E 023°36'0 0.0
2017-Aug-16 14:59N 38°02' E 023°36'0 0.0
2017-Aug-16 14:29N 38°02' E 023°36'0 0.0
2017-Aug-16 13:59N 38°02' E 023°36'0 0.0
2017-Aug-16 13:29N 38°02' E 023°36'0 0.0
2017-Aug-16 12:59N 38°02' E 023°36'0 0.0
2017-Aug-16 12:29N 38°02' E 023°36'0 0.0
2017-Aug-16 11:59N 38°02' E 023°36'0 0.0
2017-Aug-16 11:29N 38°02' E 023°36'0 0.0
2017-Aug-16 10:59N 38°02' E 023°36'0 0.0
2017-Aug-16 10:29N 38°02' E 023°36'0 0.0
2017-Aug-16 09:59N 38°02' E 023°36'0 0.0
2017-Aug-16 09:29N 38°02' E 023°36'0 0.0
2017-Aug-16 08:59N 38°02' E 023°36'0 0.0
2017-Aug-16 08:29N 38°02' E 023°36'0 0.0
2017-Aug-16 07:59N 38°02' E 023°36'0 0.0
2017-Aug-16 07:29N 38°02' E 023°36'0 0.0
2017-Aug-16 06:59N 38°02' E 023°36'0 0.0
2017-Aug-16 06:29N 38°02' E 023°36'0 0.0
2017-Aug-16 05:59N 38°02' E 023°36'0 0.0
2017-Aug-16 05:29N 38°02' E 023°36'0 0.0
2017-Aug-16 04:59N 38°02' E 023°36'0 0.0
2017-Aug-16 04:29N 38°02' E 023°36'0 0.0
2017-Aug-16 03:59N 38°02' E 023°36'0 0.0
2017-Aug-16 03:29N 38°02' E 023°36'0 0.0
2017-Aug-16 02:59N 38°02' E 023°36'0 0.0
2017-Aug-16 02:29N 38°02' E 023°36'0 0.0
2017-Aug-16 01:56N 38°02' E 023°36'0 0.0
2017-Aug-16 01:29N 38°02' E 023°36'0 0.0
2017-Aug-16 00:59N 38°02' E 023°36'0 0.0
2017-Aug-16 00:29N 38°02' E 023°36'0 0.0
2017-Aug-15 23:59N 38°02' E 023°36'0 0.0
2017-Aug-15 23:29N 38°02' E 023°36'0 0.0
2017-Aug-15 22:59N 38°02' E 023°36'0 0.0
2017-Aug-15 22:29N 38°02' E 023°36'0 0.0
2017-Aug-15 21:59N 38°02' E 023°36'0 0.0
2017-Aug-15 21:29N 38°02' E 023°36'0 0.0
2017-Aug-15 20:59N 38°02' E 023°36'0 0.0
2017-Aug-15 20:29N 38°02' E 023°36'0 0.0
2017-Aug-15 19:59N 38°02' E 023°36'0 0.0
2017-Aug-15 19:29N 38°02' E 023°36'0 0.0
2017-Aug-15 18:59N 38°02' E 023°36'0 0.0
2017-Aug-15 18:29N 38°02' E 023°36'0 0.0
2017-Aug-15 17:59N 38°02' E 023°36'0 0.0
2017-Aug-15 17:29N 38°02' E 023°36'0 0.0
2017-Aug-15 16:59N 38°02' E 023°36'0 0.0
2017-Aug-15 16:29N 38°02' E 023°36'0 0.0
2017-Aug-15 15:59N 38°02' E 023°36'0 0.0
2017-Aug-15 15:29N 38°02' E 023°36'0 0.0
2017-Aug-15 14:59N 38°02' E 023°36'0 0.0
2017-Aug-15 14:29N 38°02' E 023°36'0 0.0
2017-Aug-15 13:59N 38°02' E 023°36'0 0.0
2017-Aug-15 13:29N 38°02' E 023°36'0 0.0
2017-Aug-15 12:59N 38°02' E 023°36'0 0.0
2017-Aug-15 12:29N 38°02' E 023°36'0 0.0
2017-Aug-15 11:59N 38°02' E 023°36'0 0.0
2017-Aug-15 11:29N 38°02' E 023°36'0 0.0
2017-Aug-15 10:59N 38°02' E 023°36'0 0.0
2017-Aug-15 10:29N 38°02' E 023°36'0 0.0
2017-Aug-15 09:59N 38°02' E 023°36'0 0.0
2017-Aug-15 09:29N 38°02' E 023°36'0 0.0
2017-Aug-15 08:59N 38°02' E 023°36'0 0.0
2017-Aug-15 08:29N 38°02' E 023°36'0 0.0
2017-Aug-15 07:59N 38°02' E 023°36'0 0.0
2017-Aug-15 07:29N 38°02' E 023°36'0 0.0
2017-Aug-15 06:59N 38°02' E 023°36'0 0.0
2017-Aug-15 06:29N 38°02' E 023°36'0 0.0
2017-Aug-15 05:59N 38°02' E 023°36'0 0.0
2017-Aug-15 05:29N 38°02' E 023°36'0 0.0
2017-Aug-15 04:59N 38°02' E 023°36'0 0.0
2017-Aug-15 04:29N 38°02' E 023°36'0 0.0
2017-Aug-15 03:59N 38°02' E 023°36'0 0.0
2017-Aug-15 03:29N 38°02' E 023°36'0 0.0
2017-Aug-15 02:59N 38°02' E 023°36'0 0.0
2017-Aug-15 02:29N 38°02' E 023°36'0 0.0
2017-Aug-15 01:59N 38°02' E 023°36'0 0.0
2017-Aug-15 01:29N 38°02' E 023°36'0 0.0
2017-Aug-15 00:59N 38°02' E 023°36'0 0.0
2017-Aug-15 00:29N 38°02' E 023°36'0 0.0
2017-Aug-14 23:59N 38°02' E 023°36'0 0.0
2017-Aug-14 23:29N 38°02' E 023°36'0 0.0
2017-Aug-14 22:59N 38°02' E 023°36'0 0.0
2017-Aug-14 22:29N 38°02' E 023°36'0 0.0
2017-Aug-14 21:59N 38°02' E 023°36'0 0.0
2017-Aug-14 21:29N 38°02' E 023°36'0 0.0
2017-Aug-14 20:59N 38°02' E 023°36'0 0.0
2017-Aug-14 20:29N 38°02' E 023°36'0 0.0
2017-Aug-14 19:59N 38°02' E 023°36'0 0.0
2017-Aug-14 19:29N 38°02' E 023°36'0 0.0
2017-Aug-14 18:59N 38°02' E 023°36'0 0.0
2017-Aug-14 18:29N 38°02' E 023°36'0 0.2
2017-Aug-14 18:01N 38°02' E 023°35'4 7.5
2017-Aug-14 17:30N 37°59' E 023°33'3 6.5
2017-Aug-14 17:01N 37°56' E 023°35'4 8.0
2017-Aug-14 16:30N 37°52' E 023°37'4 8.3
2017-Aug-14 16:00N 37°49' E 023°40'4 8.1
2017-Aug-14 15:30N 37°45' E 023°42'4 7.9
2017-Aug-14 15:00N 37°42' E 023°44'4 7.6
2017-Aug-14 14:30N 37°39' E 023°47'4 7.8
2017-Aug-14 14:00N 37°36' E 023°50'  

Dump ship's entire track history